sensor_id;sensor_type;location;lat;lon;timestamp;pressure;altitude;pressure_sealevel;temperature;humidity
60417;BME280;46263;44.726;10.396;2022-10-15T00:00:31;100575.25;;;20.71;63.49
60417;BME280;46263;44.726;10.396;2022-10-15T00:02:56;100578.66;;;20.69;63.38
60417;BME280;46263;44.726;10.396;2022-10-15T00:05:22;100593.03;;;20.71;63.31
60417;BME280;46263;44.726;10.396;2022-10-15T00:07:48;100584.53;;;20.71;63.13
60417;BME280;46263;44.726;10.396;2022-10-15T00:10:14;100581.69;;;20.71;63.75
60417;BME280;46263;44.726;10.396;2022-10-15T00:12:40;100567.47;;;20.71;63.51
60417;BME280;46263;44.726;10.396;2022-10-15T00:15:06;100577.50;;;20.72;63.36
60417;BME280;46263;44.726;10.396;2022-10-15T00:17:32;100571.81;;;20.72;63.23
60417;BME280;46263;44.726;10.396;2022-10-15T00:19:58;100582.44;;;20.72;63.40
60417;BME280;46263;44.726;10.396;2022-10-15T00:22:23;100574.50;;;20.70;63.32
60417;BME280;46263;44.726;10.396;2022-10-15T00:24:49;100580.19;;;20.70;63.38
60417;BME280;46263;44.726;10.396;2022-10-15T00:27:14;100583.78;;;20.71;63.30
60417;BME280;46263;44.726;10.396;2022-10-15T00:29:40;100580.94;;;20.71;63.58
60417;BME280;46263;44.726;10.396;2022-10-15T00:32:05;100580.94;;;20.71;63.16
60417;BME280;46263;44.726;10.396;2022-10-15T00:34:31;100588.13;;;20.72;63.53
60417;BME280;46263;44.726;10.396;2022-10-15T00:36:56;100583.00;;;20.70;63.66
60417;BME280;46263;44.726;10.396;2022-10-15T00:39:22;100587.97;;;20.70;63.31
60417;BME280;46263;44.726;10.396;2022-10-15T00:41:47;100587.19;;;20.69;63.37
60417;BME280;46263;44.726;10.396;2022-10-15T00:47:13;100577.16;;;20.68;63.47
60417;BME280;46263;44.726;10.396;2022-10-15T00:49:53;100582.84;;;20.68;63.37
60417;BME280;46263;44.726;10.396;2022-10-15T00:52:59;100582.09;;;20.68;63.46
60417;BME280;46263;44.726;10.396;2022-10-15T00:55:32;100578.66;;;20.69;63.33
60417;BME280;46263;44.726;10.396;2022-10-15T00:58:02;100579.28;;;20.68;63.50
60417;BME280;46263;44.726;10.396;2022-10-15T01:00:30;100584.34;;;20.69;63.35
60417;BME280;46263;44.726;10.396;2022-10-15T01:02:55;100575.69;;;20.67;63.38
60417;BME280;46263;44.726;10.396;2022-10-15T01:05:22;100563.56;;;20.67;63.33
60417;BME280;46263;44.726;10.396;2022-10-15T01:07:47;100569.25;;;20.67;63.46
60417;BME280;46263;44.726;10.396;2022-10-15T01:10:13;100565.66;;;20.66;63.50
60417;BME280;46263;44.726;10.396;2022-10-15T01:15:26;100565.06;;;20.68;63.53
60417;BME280;46263;44.726;10.396;2022-10-15T01:18:16;100560.88;;;20.69;63.63
60417;BME280;46263;44.726;10.396;2022-10-15T01:20:49;100558.63;;;20.67;63.64
60417;BME280;46263;44.726;10.396;2022-10-15T01:36:50;100535.16;;;20.67;63.46
60417;BME280;46263;44.726;10.396;2022-10-15T01:39:32;100532.31;;;20.67;63.60
60417;BME280;46263;44.726;10.396;2022-10-15T01:42:33;100536.66;;;20.68;63.31
60417;BME280;46263;44.726;10.396;2022-10-15T01:45:05;100536.06;;;20.69;63.28
60417;BME280;46263;44.726;10.396;2022-10-15T01:47:42;100531.72;;;20.68;63.44
60417;BME280;46263;44.726;10.396;2022-10-15T01:50:11;100515.84;;;20.65;63.33
60417;BME280;46263;44.726;10.396;2022-10-15T01:52:40;100513.19;;;20.67;63.45
60417;BME280;46263;44.726;10.396;2022-10-15T01:55:09;100515.25;;;20.67;63.33
60417;BME280;46263;44.726;10.396;2022-10-15T01:57:37;100514.53;;;20.66;63.31
60417;BME280;46263;44.726;10.396;2022-10-15T02:00:05;100514.53;;;20.66;63.48
60417;BME280;46263;44.726;10.396;2022-10-15T02:02:31;100520.22;;;20.66;63.45
60417;BME280;46263;44.726;10.396;2022-10-15T02:04:56;100513.75;;;20.66;63.53
60417;BME280;46263;44.726;10.396;2022-10-15T02:10:16;100514.53;;;20.66;63.21
60417;BME280;46263;44.726;10.396;2022-10-15T02:12:57;100513.75;;;20.66;63.27
60417;BME280;46263;44.726;10.396;2022-10-15T02:15:38;100515.84;;;20.65;63.25
60417;BME280;46263;44.726;10.396;2022-10-15T02:18:14;100516.59;;;20.66;63.33
60417;BME280;46263;44.726;10.396;2022-10-15T02:20:49;100518.09;;;20.67;63.37
60417;BME280;46263;44.726;10.396;2022-10-15T02:23:19;100517.38;;;20.66;63.43
60417;BME280;46263;44.726;10.396;2022-10-15T02:25:46;100522.28;;;20.66;63.25
60417;BME280;46263;44.726;10.396;2022-10-15T02:28:14;100515.84;;;20.65;63.36
60417;BME280;46263;44.726;10.396;2022-10-15T02:30:42;100522.28;;;20.66;63.39
60417;BME280;46263;44.726;10.396;2022-10-15T02:33:10;100517.94;;;20.65;63.61
60417;BME280;46263;44.726;10.396;2022-10-15T02:35:36;100520.78;;;20.65;63.55
60417;BME280;46263;44.726;10.396;2022-10-15T02:38:04;100527.22;;;20.65;62.99
60417;BME280;46263;44.726;10.396;2022-10-15T02:40:33;100526.63;;;20.67;63.37
60417;BME280;46263;44.726;10.396;2022-10-15T02:43:03;100518.88;;;20.67;63.33
60417;BME280;46263;44.726;10.396;2022-10-15T02:45:29;100518.69;;;20.65;63.45
60417;BME280;46263;44.726;10.396;2022-10-15T02:47:54;100525.88;;;20.66;63.56
60417;BME280;46263;44.726;10.396;2022-10-15T02:50:20;100527.22;;;20.65;63.41
60417;BME280;46263;44.726;10.396;2022-10-15T02:52:45;100530.81;;;20.66;63.38
60417;BME280;46263;44.726;10.396;2022-10-15T02:55:11;100534.41;;;20.66;63.22
60417;BME280;46263;44.726;10.396;2022-10-15T02:57:36;100526.47;;;20.65;63.36
60417;BME280;46263;44.726;10.396;2022-10-15T03:00:03;100525.72;;;20.64;63.42
60417;BME280;46263;44.726;10.396;2022-10-15T03:02:29;100520.03;;;20.64;63.46
60417;BME280;46263;44.726;10.396;2022-10-15T03:04:54;100520.03;;;20.64;63.09
60417;BME280;46263;44.726;10.396;2022-10-15T03:07:19;100515.09;;;20.65;63.27
60417;BME280;46263;44.726;10.396;2022-10-15T03:09:45;100514.34;;;20.64;63.46
60417;BME280;46263;44.726;10.396;2022-10-15T03:12:10;100509.28;;;20.63;63.19
60417;BME280;46263;44.726;10.396;2022-10-15T03:14:36;100504.31;;;20.63;63.46
60417;BME280;46263;44.726;10.396;2022-10-15T03:17:01;100503.00;;;20.64;63.59
60417;BME280;46263;44.726;10.396;2022-10-15T03:19:26;100498.66;;;20.63;63.62
60417;BME280;46263;44.726;10.396;2022-10-15T03:21:52;100497.16;;;20.62;63.39
60417;BME280;46263;44.726;10.396;2022-10-15T03:24:17;100485.19;;;20.64;63.53
60417;BME280;46263;44.726;10.396;2022-10-15T03:26:43;100485.19;;;20.64;63.68
60417;BME280;46263;44.726;10.396;2022-10-15T03:29:08;100480.69;;;20.61;63.70
60417;BME280;46263;44.726;10.396;2022-10-15T03:31:34;100480.88;;;20.63;63.28
60417;BME280;46263;44.726;10.396;2022-10-15T03:34:00;100474.41;;;20.62;63.61
60417;BME280;46263;44.726;10.396;2022-10-15T03:36:25;100473.09;;;20.63;63.51
60417;BME280;46263;44.726;10.396;2022-10-15T03:38:51;100478.03;;;20.63;63.59
60417;BME280;46263;44.726;10.396;2022-10-15T03:41:17;100477.25;;;20.62;63.43
60417;BME280;46263;44.726;10.396;2022-10-15T03:43:42;100480.88;;;20.63;63.41
60417;BME280;46263;44.726;10.396;2022-10-15T03:46:08;100482.94;;;20.62;63.23
60417;BME280;46263;44.726;10.396;2022-10-15T03:48:33;100472.34;;;20.63;63.46
60417;BME280;46263;44.726;10.396;2022-10-15T03:50:58;100472.34;;;20.63;63.68
60417;BME280;46263;44.726;10.396;2022-10-15T03:53:24;100464.41;;;20.61;63.35
60417;BME280;46263;44.726;10.396;2022-10-15T03:55:49;100466.66;;;20.63;63.31
60417;BME280;46263;44.726;10.396;2022-10-15T03:58:15;100472.34;;;20.63;63.25
60417;BME280;46263;44.726;10.396;2022-10-15T04:00:41;100472.91;;;20.61;63.40
60417;BME280;46263;44.726;10.396;2022-10-15T04:03:07;100475.00;;;20.61;63.47
60417;BME280;46263;44.726;10.396;2022-10-15T04:05:32;100468.56;;;20.60;63.63
60417;BME280;46263;44.726;10.396;2022-10-15T04:07:58;100479.19;;;20.60;63.47
60417;BME280;46263;44.726;10.396;2022-10-15T04:10:23;100469.34;;;20.61;63.31
60417;BME280;46263;44.726;10.396;2022-10-15T04:12:49;100481.44;;;20.61;63.44
60417;BME280;46263;44.726;10.396;2022-10-15T04:15:15;100487.13;;;20.61;63.60
60417;BME280;46263;44.726;10.396;2022-10-15T04:17:40;100488.44;;;20.60;63.35
60417;BME280;46263;44.726;10.396;2022-10-15T04:20:06;100490.56;;;20.60;63.38
60417;BME280;46263;44.726;10.396;2022-10-15T04:22:32;100492.06;;;20.61;63.58
60417;BME280;46263;44.726;10.396;2022-10-15T04:24:57;100498.47;;;20.61;63.47
60417;BME280;46263;44.726;10.396;2022-10-15T04:27:22;100497.75;;;20.61;63.34
60417;BME280;46263;44.726;10.396;2022-10-15T04:29:48;100505.50;;;20.60;63.61
60417;BME280;46263;44.726;10.396;2022-10-15T04:32:14;100511.19;;;20.60;63.58
60417;BME280;46263;44.726;10.396;2022-10-15T04:34:40;100501.91;;;20.60;63.30
60417;BME280;46263;44.726;10.396;2022-10-15T04:37:05;100501.91;;;20.60;63.46
60417;BME280;46263;44.726;10.396;2022-10-15T04:39:30;100501.91;;;20.60;63.55
60417;BME280;46263;44.726;10.396;2022-10-15T04:41:56;100502.66;;;20.60;63.58
60417;BME280;46263;44.726;10.396;2022-10-15T04:44:21;100502.66;;;20.60;63.31
60417;BME280;46263;44.726;10.396;2022-10-15T04:46:47;100502.66;;;20.60;63.63
60417;BME280;46263;44.726;10.396;2022-10-15T04:49:12;100491.16;;;20.58;63.69
60417;BME280;46263;44.726;10.396;2022-10-15T04:51:37;100494.00;;;20.58;63.57
60417;BME280;46263;44.726;10.396;2022-10-15T04:54:03;100494.72;;;20.59;63.63
60417;BME280;46263;44.726;10.396;2022-10-15T04:56:29;100495.50;;;20.59;63.54
60417;BME280;46263;44.726;10.396;2022-10-15T04:58:54;100496.97;;;20.60;63.55
60417;BME280;46263;44.726;10.396;2022-10-15T05:01:20;100494.00;;;20.58;63.24
60417;BME280;46263;44.726;10.396;2022-10-15T05:03:47;100499.69;;;20.58;63.34
60417;BME280;46263;44.726;10.396;2022-10-15T05:06:15;100495.50;;;20.59;63.59
60417;BME280;46263;44.726;10.396;2022-10-15T05:08:41;100501.19;;;20.59;63.57
60417;BME280;46263;44.726;10.396;2022-10-15T05:13:37;100511.03;;;20.58;63.53
60417;BME280;46263;44.726;10.396;2022-10-15T05:16:20;100528.09;;;20.58;63.37
60417;BME280;46263;44.726;10.396;2022-10-15T05:18:47;100521.06;;;20.59;63.64
60417;BME280;46263;44.726;10.396;2022-10-15T05:21:13;100525.25;;;20.58;63.44
60417;BME280;46263;44.726;10.396;2022-10-15T05:23:39;100515.38;;;20.59;63.45
60417;BME280;46263;44.726;10.396;2022-10-15T05:26:07;100523.91;;;20.59;63.28
60417;BME280;46263;44.726;10.396;2022-10-15T05:28:34;100527.31;;;20.58;63.54
60417;BME280;46263;44.726;10.396;2022-10-15T05:31:08;100529.41;;;20.57;63.60
60417;BME280;46263;44.726;10.396;2022-10-15T05:33:34;100526.56;;;20.57;63.63
60417;BME280;46263;44.726;10.396;2022-10-15T05:36:16;100529.59;;;20.59;63.46
60417;BME280;46263;44.726;10.396;2022-10-15T05:38:43;100522.84;;;20.55;63.48
60417;BME280;46263;44.726;10.396;2022-10-15T05:41:09;100513.72;;;20.56;63.59
60417;BME280;46263;44.726;10.396;2022-10-15T05:43:34;100509.38;;;20.55;63.43
60417;BME280;46263;44.726;10.396;2022-10-15T05:46:00;100504.41;;;20.56;63.57
60417;BME280;46263;44.726;10.396;2022-10-15T05:48:26;100516.72;;;20.58;63.46
60417;BME280;46263;44.726;10.396;2022-10-15T05:50:51;100513.72;;;20.56;63.54
60417;BME280;46263;44.726;10.396;2022-10-15T05:53:17;100515.22;;;20.57;63.64
60417;BME280;46263;44.726;10.396;2022-10-15T05:55:42;100513.72;;;20.56;63.42
60417;BME280;46263;44.726;10.396;2022-10-15T05:58:08;100513.72;;;20.56;63.44
60417;BME280;46263;44.726;10.396;2022-10-15T06:00:34;100515.78;;;20.56;63.31
60417;BME280;46263;44.726;10.396;2022-10-15T06:02:59;100520.13;;;20.57;63.40
60417;BME280;46263;44.726;10.396;2022-10-15T06:05:25;100522.84;;;20.55;63.75
60417;BME280;46263;44.726;10.396;2022-10-15T06:07:50;100528.50;;;20.55;63.35
60417;BME280;46263;44.726;10.396;2022-10-15T06:10:16;100528.50;;;20.55;63.51
60417;BME280;46263;44.726;10.396;2022-10-15T06:12:42;100536.44;;;20.56;63.50
60417;BME280;46263;44.726;10.396;2022-10-15T06:15:09;100542.13;;;20.56;63.31
60417;BME280;46263;44.726;10.396;2022-10-15T06:17:34;100534.19;;;20.55;63.47
60417;BME280;46263;44.726;10.396;2022-10-15T06:20:00;100541.94;;;20.54;63.53
60417;BME280;46263;44.726;10.396;2022-10-15T06:22:25;100543.44;;;20.55;63.59
60417;BME280;46263;44.726;10.396;2022-10-15T06:24:50;100542.72;;;20.55;63.43
60417;BME280;46263;44.726;10.396;2022-10-15T06:27:17;100544.78;;;20.54;63.27
60417;BME280;46263;44.726;10.396;2022-10-15T06:29:42;100541.22;;;20.54;63.60
60417;BME280;46263;44.726;10.396;2022-10-15T06:32:09;100538.38;;;20.54;63.45
60417;BME280;46263;44.726;10.396;2022-10-15T06:34:34;100534.75;;;20.53;63.58
60417;BME280;46263;44.726;10.396;2022-10-15T06:37:00;100535.53;;;20.54;63.41
60417;BME280;46263;44.726;10.396;2022-10-15T06:39:25;100541.94;;;20.54;63.53
60417;BME280;46263;44.726;10.396;2022-10-15T06:41:50;100537.59;;;20.53;63.59
60417;BME280;46263;44.726;10.396;2022-10-15T06:44:16;100546.28;;;20.55;63.50
60417;BME280;46263;44.726;10.396;2022-10-15T06:46:41;100555.41;;;20.54;63.46
60417;BME280;46263;44.726;10.396;2022-10-15T06:49:07;100551.06;;;20.53;63.49
60417;BME280;46263;44.726;10.396;2022-10-15T06:51:32;100560.91;;;20.52;63.59
60417;BME280;46263;44.726;10.396;2022-10-15T06:53:58;100561.84;;;20.54;63.73
60417;BME280;46263;44.726;10.396;2022-10-15T06:56:23;100558.81;;;20.52;63.62
60417;BME280;46263;44.726;10.396;2022-10-15T06:58:49;100561.66;;;20.52;63.55
60417;BME280;46263;44.726;10.396;2022-10-15T07:01:14;100564.50;;;20.52;63.65
60417;BME280;46263;44.726;10.396;2022-10-15T07:03:41;100563.03;;;20.51;63.68
60417;BME280;46263;44.726;10.396;2022-10-15T07:06:07;100563.03;;;20.51;63.71
60417;BME280;46263;44.726;10.396;2022-10-15T07:08:34;100563.03;;;20.51;63.59
60417;BME280;46263;44.726;10.396;2022-10-15T07:11:01;100560.31;;;20.53;63.61
60417;BME280;46263;44.726;10.396;2022-10-15T07:13:28;100556.56;;;20.51;63.45
60417;BME280;46263;44.726;10.396;2022-10-15T07:15:53;100560.19;;;20.51;63.63
60417;BME280;46263;44.726;10.396;2022-10-15T07:18:20;100564.50;;;20.52;63.91
60417;BME280;46263;44.726;10.396;2022-10-15T07:20:46;100563.75;;;20.52;63.59
60417;BME280;46263;44.726;10.396;2022-10-15T07:23:11;100576.47;;;20.51;63.74
60417;BME280;46263;44.726;10.396;2022-10-15T07:25:37;100573.03;;;20.52;63.54
60417;BME280;46263;44.726;10.396;2022-10-15T07:28:03;100574.38;;;20.51;63.62
60417;BME280;46263;44.726;10.396;2022-10-15T07:30:29;100574.38;;;20.51;63.47
60417;BME280;46263;44.726;10.396;2022-10-15T07:32:58;100565.88;;;20.51;63.88
60417;BME280;46263;44.726;10.396;2022-10-15T07:35:25;100570.94;;;20.53;63.70
60417;BME280;46263;44.726;10.396;2022-10-15T07:37:51;100563.03;;;20.51;63.76
60417;BME280;46263;44.726;10.396;2022-10-15T07:40:17;100572.13;;;20.50;63.67
60417;BME280;46263;44.726;10.396;2022-10-15T07:42:42;100567.75;;;20.49;63.80
60417;BME280;46263;44.726;10.396;2022-10-15T07:45:08;100571.53;;;20.51;63.75
60417;BME280;46263;44.726;10.396;2022-10-15T07:47:34;100572.28;;;20.52;63.64
60417;BME280;46263;44.726;10.396;2022-10-15T07:49:59;100577.22;;;20.51;63.87
60417;BME280;46263;44.726;10.396;2022-10-15T07:52:25;100580.06;;;20.51;63.61
60417;BME280;46263;44.726;10.396;2022-10-15T07:54:50;100589.16;;;20.50;63.84
60417;BME280;46263;44.726;10.396;2022-10-15T07:57:17;100594.28;;;20.51;63.58
60417;BME280;46263;44.726;10.396;2022-10-15T07:59:43;100591.44;;;20.51;63.67
60417;BME280;46263;44.726;10.396;2022-10-15T08:02:15;100593.31;;;20.49;63.49
60417;BME280;46263;44.726;10.396;2022-10-15T08:04:41;100599.59;;;20.47;64.06
60417;BME280;46263;44.726;10.396;2022-10-15T08:07:07;100604.69;;;20.49;63.61
60417;BME280;46263;44.726;10.396;2022-10-15T08:09:32;100601.84;;;20.49;63.27
60417;BME280;46263;44.726;10.396;2022-10-15T08:11:58;100602.03;;;20.51;63.86
60417;BME280;46263;44.726;10.396;2022-10-15T08:14:23;100598.28;;;20.48;63.74
60417;BME280;46263;44.726;10.396;2022-10-15T08:16:49;100604.13;;;20.50;63.65
60417;BME280;46263;44.726;10.396;2022-10-15T08:19:15;100599.00;;;20.49;63.90
60417;BME280;46263;44.726;10.396;2022-10-15T08:21:42;100597.50;;;20.48;63.81
60417;BME280;46263;44.726;10.396;2022-10-15T08:24:08;100598.28;;;20.48;64.05
60417;BME280;46263;44.726;10.396;2022-10-15T08:26:34;100601.84;;;20.49;63.68
60417;BME280;46263;44.726;10.396;2022-10-15T08:29:00;100600.50;;;20.50;63.73
60417;BME280;46263;44.726;10.396;2022-10-15T08:31:25;100601.09;;;20.48;63.83
60417;BME280;46263;44.726;10.396;2022-10-15T08:33:51;100598.88;;;20.47;63.68
60417;BME280;46263;44.726;10.396;2022-10-15T08:36:16;100608.88;;;20.48;63.59
60417;BME280;46263;44.726;10.396;2022-10-15T08:38:42;100612.47;;;20.48;63.92
60417;BME280;46263;44.726;10.396;2022-10-15T08:41:19;100606.63;;;20.46;63.98
60417;BME280;46263;44.726;10.396;2022-10-15T08:43:47;100612.28;;;20.46;63.65
60417;BME280;46263;44.726;10.396;2022-10-15T08:46:37;100613.81;;;20.47;63.70
60417;BME280;46263;44.726;10.396;2022-10-15T08:49:06;100617.38;;;20.48;63.68
60417;BME280;46263;44.726;10.396;2022-10-15T08:51:40;100618.75;;;20.47;64.00
60417;BME280;46263;44.726;10.396;2022-10-15T08:54:13;100623.84;;;20.48;63.72
60417;BME280;46263;44.726;10.396;2022-10-15T08:56:44;100624.44;;;20.47;63.61
60417;BME280;46263;44.726;10.396;2022-10-15T08:59:26;100622.16;;;20.45;63.91
60417;BME280;46263;44.726;10.396;2022-10-15T09:02:03;100627.84;;;20.45;63.88
60417;BME280;46263;44.726;10.396;2022-10-15T09:07:55;100625.91;;;20.48;63.69
60417;BME280;46263;44.726;10.396;2022-10-15T09:10:32;100630.69;;;20.45;63.94
60417;BME280;46263;44.726;10.396;2022-10-15T09:13:09;100635.19;;;20.48;63.51
60417;BME280;46263;44.726;10.396;2022-10-15T09:15:45;100631.44;;;20.46;64.06
60417;BME280;46263;44.726;10.396;2022-10-15T09:18:17;100632.78;;;20.45;63.95
60417;BME280;46263;44.726;10.396;2022-10-15T09:20:44;100637.13;;;20.46;63.88
60417;BME280;46263;44.726;10.396;2022-10-15T09:23:17;100632.78;;;20.45;64.05
60417;BME280;46263;44.726;10.396;2022-10-15T09:25:46;100632.78;;;20.45;63.88
60417;BME280;46263;44.726;10.396;2022-10-15T09:28:16;100625.75;;;20.46;63.89
60417;BME280;46263;44.726;10.396;2022-10-15T09:30:49;100622.91;;;20.46;63.72
60417;BME280;46263;44.726;10.396;2022-10-15T09:33:32;100631.25;;;20.44;63.85
60417;BME280;46263;44.726;10.396;2022-10-15T09:36:28;100627.84;;;20.45;63.82
60417;BME280;46263;44.726;10.396;2022-10-15T09:44:07;100625.00;;;20.45;63.67
60417;BME280;46263;44.726;10.396;2022-10-15T09:46:45;100633.50;;;20.45;64.07
60417;BME280;46263;44.726;10.396;2022-10-15T09:49:23;100632.00;;;20.44;63.83
60417;BME280;46263;44.726;10.396;2022-10-15T09:54:39;100630.53;;;20.43;63.91
60417;BME280;46263;44.726;10.396;2022-10-15T09:57:09;100641.88;;;20.43;63.75
60417;BME280;46263;44.726;10.396;2022-10-15T09:59:35;100636.22;;;20.43;63.87
60417;BME280;46263;44.726;10.396;2022-10-15T10:02:02;100643.38;;;20.44;64.00
60417;BME280;46263;44.726;10.396;2022-10-15T10:04:32;100643.22;;;20.42;63.87
60417;BME280;46263;44.726;10.396;2022-10-15T10:07:04;100637.69;;;20.44;63.85
60417;BME280;46263;44.726;10.396;2022-10-15T10:09:53;100639.03;;;20.43;63.73
60417;BME280;46263;44.726;10.396;2022-10-15T10:12:22;100646.22;;;20.44;64.14
60417;BME280;46263;44.726;10.396;2022-10-15T10:14:58;100649.81;;;20.45;63.96
60417;BME280;46263;44.726;10.396;2022-10-15T10:17:29;100646.22;;;20.44;63.76
60417;BME280;46263;44.726;10.396;2022-10-15T10:20:13;100651.75;;;20.42;64.03
60417;BME280;46263;44.726;10.396;2022-10-15T10:27:52;100653.06;;;20.41;63.62
60417;BME280;46263;44.726;10.396;2022-10-15T10:30:17;100652.47;;;20.43;63.68
60417;BME280;46263;44.726;10.396;2022-10-15T10:32:43;100643.22;;;20.42;63.96
60417;BME280;46263;44.726;10.396;2022-10-15T10:35:20;100643.38;;;20.44;63.88
60417;BME280;46263;44.726;10.396;2022-10-15T10:37:46;100643.97;;;20.43;63.96
60417;BME280;46263;44.726;10.396;2022-10-15T10:40:26;100628.25;;;20.42;63.92
60417;BME280;46263;44.726;10.396;2022-10-15T10:45:35;100631.25;;;20.44;63.83
60417;BME280;46263;44.726;10.396;2022-10-15T10:48:27;100619.56;;;20.40;64.05
60417;BME280;46263;44.726;10.396;2022-10-15T10:51:14;100619.16;;;20.43;64.07
60417;BME280;46263;44.726;10.396;2022-10-15T10:56:17;100619.16;;;20.43;63.77
60417;BME280;46263;44.726;10.396;2022-10-15T10:58:45;100623.34;;;20.42;63.98
60417;BME280;46263;44.726;10.396;2022-10-15T11:01:14;100611.97;;;20.42;63.97
60417;BME280;46263;44.726;10.396;2022-10-15T11:03:42;100614.06;;;20.42;63.89
60417;BME280;46263;44.726;10.396;2022-10-15T11:26:29;100598.94;;;20.39;63.89
60417;BME280;46263;44.726;10.396;2022-10-15T11:51:47;100584.16;;;20.41;63.90
60417;BME280;46263;44.726;10.396;2022-10-15T11:54:22;100583.41;;;20.40;63.86
60417;BME280;46263;44.726;10.396;2022-10-15T11:56:52;100579.81;;;20.40;63.84
60417;BME280;46263;44.726;10.396;2022-10-15T11:59:36;100578.31;;;20.39;64.06
60417;BME280;46263;44.726;10.396;2022-10-15T12:02:08;100573.38;;;20.39;63.98
60417;BME280;46263;44.726;10.396;2022-10-15T12:04:39;100567.72;;;20.39;63.99
60417;BME280;46263;44.726;10.396;2022-10-15T12:07:12;100572.66;;;20.39;63.93
60417;BME280;46263;44.726;10.396;2022-10-15T12:09:43;100566.97;;;20.39;63.99
60417;BME280;46263;44.726;10.396;2022-10-15T12:12:22;100573.38;;;20.39;63.98
60417;BME280;46263;44.726;10.396;2022-10-15T12:20:22;100562.75;;;20.40;64.05
60417;BME280;46263;44.726;10.396;2022-10-15T12:22:53;100562.19;;;20.41;63.92
60417;BME280;46263;44.726;10.396;2022-10-15T12:28:23;100560.88;;;20.42;63.87
60417;BME280;46263;44.726;10.396;2022-10-15T12:31:02;100563.53;;;20.40;63.76
60417;BME280;46263;44.726;10.396;2022-10-15T12:33:35;100557.84;;;20.40;63.95
60417;BME280;46263;44.726;10.396;2022-10-15T12:36:05;100551.41;;;20.40;64.11
60417;BME280;46263;44.726;10.396;2022-10-15T12:38:41;100541.56;;;20.41;63.99
60417;BME280;46263;44.726;10.396;2022-10-15T12:41:15;100545.00;;;20.39;63.99
60417;BME280;46263;44.726;10.396;2022-10-15T12:43:50;100538.56;;;20.39;63.98
60417;BME280;46263;44.726;10.396;2022-10-15T12:46:17;100540.81;;;20.40;64.06
60417;BME280;46263;44.726;10.396;2022-10-15T12:48:44;100533.63;;;20.39;64.11
60417;BME280;46263;44.726;10.396;2022-10-15T12:53:52;100527.22;;;20.39;63.99
60417;BME280;46263;44.726;10.396;2022-10-15T12:56:24;100520.75;;;20.38;64.12
60417;BME280;46263;44.726;10.396;2022-10-15T13:08:50;100520.75;;;20.38;64.01
60417;BME280;46263;44.726;10.396;2022-10-15T13:11:50;100521.53;;;20.39;64.25
60417;BME280;46263;44.726;10.396;2022-10-15T13:14:37;100522.28;;;20.39;63.87
60417;BME280;46263;44.726;10.396;2022-10-15T13:17:12;100521.53;;;20.39;64.07
60417;BME280;46263;44.726;10.396;2022-10-15T13:19:44;100516.59;;;20.39;64.10
60417;BME280;46263;44.726;10.396;2022-10-15T13:22:23;100519.25;;;20.37;64.18
60417;BME280;46263;44.726;10.396;2022-10-15T13:24:48;100519.44;;;20.39;64.21
60417;BME280;46263;44.726;10.396;2022-10-15T13:27:20;100522.28;;;20.39;64.29
60417;BME280;46263;44.726;10.396;2022-10-15T13:32:22;100520.94;;;20.40;64.07
60417;BME280;46263;44.726;10.396;2022-10-15T13:34:48;100532.13;;;20.38;64.02
60417;BME280;46263;44.726;10.396;2022-10-15T13:37:22;100519.25;;;20.37;64.01
60417;BME280;46263;44.726;10.396;2022-10-15T13:39:50;100519.25;;;20.37;64.41
60417;BME280;46263;44.726;10.396;2022-10-15T13:42:19;100525.13;;;20.39;64.04
60417;BME280;46263;44.726;10.396;2022-10-15T13:47:27;100524.50;;;20.41;64.09
60417;BME280;46263;44.726;10.396;2022-10-15T13:50:25;100516.59;;;20.39;64.35
60417;BME280;46263;44.726;10.396;2022-10-15T13:53:00;100517.31;;;20.40;64.09
60417;BME280;46263;44.726;10.396;2022-10-15T13:55:30;100518.69;;;20.39;64.00
60417;BME280;46263;44.726;10.396;2022-10-15T13:58:23;100510.91;;;20.39;63.92
60417;BME280;46263;44.726;10.396;2022-10-15T14:01:12;100524.50;;;20.41;64.04
60417;BME280;46263;44.726;10.396;2022-10-15T14:03:54;100518.84;;;20.41;64.06
60417;BME280;46263;44.726;10.396;2022-10-15T14:08:51;100510.19;;;20.39;64.11
60417;BME280;46263;44.726;10.396;2022-10-15T14:11:18;100506.75;;;20.40;63.99
60417;BME280;46263;44.726;10.396;2022-10-15T14:13:45;100506.75;;;20.40;64.13
60417;BME280;46263;44.726;10.396;2022-10-15T14:18:42;100506.75;;;20.40;64.13
60417;BME280;46263;44.726;10.396;2022-10-15T14:21:11;100505.97;;;20.40;64.15
60417;BME280;46263;44.726;10.396;2022-10-15T14:23:37;100508.25;;;20.41;64.28
60417;BME280;46263;44.726;10.396;2022-10-15T14:26:03;100508.06;;;20.39;63.86
60417;BME280;46263;44.726;10.396;2022-10-15T14:28:31;100508.06;;;20.39;64.04
60417;BME280;46263;44.726;10.396;2022-10-15T14:30:58;100507.47;;;20.41;64.29
60417;BME280;46263;44.726;10.396;2022-10-15T14:38:33;100500.88;;;20.38;64.09
60417;BME280;46263;44.726;10.396;2022-10-15T14:41:01;100503.72;;;20.38;64.32
60417;BME280;46263;44.726;10.396;2022-10-15T14:43:31;100503.91;;;20.40;64.05
60417;BME280;46263;44.726;10.396;2022-10-15T14:45:59;100509.41;;;20.38;64.09
60417;BME280;46263;44.726;10.396;2022-10-15T14:48:30;100512.25;;;20.38;64.07
60417;BME280;46263;44.726;10.396;2022-10-15T14:50:58;100516.59;;;20.39;64.25
60417;BME280;46263;44.726;10.396;2022-10-15T14:53:27;100511.50;;;20.38;64.02
60417;BME280;46263;44.726;10.396;2022-10-15T14:56:07;100513.75;;;20.39;64.25